createdAt,value
2018-08-06T00:00:58.007Z,20.73
2018-08-06T00:01:58.632Z,20.69
2018-08-06T00:02:58.015Z,20.67
2018-08-06T00:03:58.036Z,20.70
2018-08-06T00:04:58.037Z,20.61
2018-08-06T00:05:58.038Z,20.54
2018-08-06T00:06:58.046Z,20.57
2018-08-06T00:07:58.044Z,20.57
2018-08-06T00:08:58.060Z,20.61
2018-08-06T00:09:58.064Z,20.58
2018-08-06T00:10:58.063Z,20.58
2018-08-06T00:11:58.055Z,20.57
2018-08-06T00:12:58.068Z,20.61
2018-08-06T00:13:58.077Z,20.54
2018-08-06T00:14:58.123Z,20.54
2018-08-06T00:15:58.068Z,20.43
2018-08-06T00:16:58.079Z,20.51
2018-08-06T00:17:58.080Z,20.48
2018-08-06T00:18:58.082Z,20.39
2018-08-06T00:19:58.084Z,20.50
2018-08-06T00:20:58.092Z,20.43
2018-08-06T00:21:58.098Z,20.38
2018-08-06T00:22:58.095Z,20.51
2018-08-06T00:23:58.093Z,20.47
2018-08-06T00:24:58.638Z,20.43
2018-08-06T00:25:58.107Z,20.47
2018-08-06T00:26:58.127Z,20.38
2018-08-06T00:27:58.123Z,20.39
2018-08-06T00:28:58.113Z,20.41
2018-08-06T00:29:58.138Z,20.33
2018-08-06T00:30:58.141Z,20.33
2018-08-06T00:31:58.115Z,20.32
2018-08-06T00:32:58.131Z,20.26
2018-08-06T00:33:58.133Z,20.29
2018-08-06T00:34:58.650Z,20.23
2018-08-06T00:35:58.140Z,20.11
2018-08-06T00:36:58.153Z,20.16
2018-08-06T00:37:58.142Z,20.14
2018-08-06T00:38:58.151Z,20.13
2018-08-06T00:39:58.145Z,20.10
2018-08-06T00:40:58.155Z,20.18
2018-08-06T00:41:58.160Z,20.14
2018-08-06T00:42:58.650Z,20.14
2018-08-06T00:43:58.171Z,20.11
2018-08-06T00:44:58.158Z,20.13
2018-08-06T00:45:58.166Z,20.18
2018-08-06T00:46:58.166Z,20.13
2018-08-06T00:47:58.171Z,20.10
2018-08-06T00:48:58.171Z,19.99
2018-08-06T00:49:58.183Z,20.05
2018-08-06T00:50:58.226Z,19.96
2018-08-06T00:51:58.192Z,19.96
2018-08-06T00:52:58.222Z,19.92
2018-08-06T00:53:58.204Z,20.03
2018-08-06T00:54:58.193Z,19.95
2018-08-06T00:55:58.247Z,19.99
2018-08-06T00:56:58.208Z,20.01
2018-08-06T00:57:58.201Z,20.01
2018-08-06T00:58:58.207Z,20.03
2018-08-06T00:59:58.211Z,20.06
2018-08-06T01:00:58.211Z,19.99
2018-08-06T01:01:58.220Z,19.94
2018-08-06T01:02:58.231Z,19.95
2018-08-06T01:03:58.239Z,19.92
2018-08-06T01:04:58.225Z,19.91
2018-08-06T01:05:58.219Z,19.94
2018-08-06T01:06:58.244Z,19.88
2018-08-06T01:07:58.237Z,19.91
2018-08-06T01:08:58.284Z,19.88
2018-08-06T01:09:58.251Z,19.86
2018-08-06T01:10:58.249Z,19.77
2018-08-06T01:11:58.261Z,19.81
2018-08-06T01:12:58.237Z,19.81
2018-08-06T01:13:58.274Z,19.86
2018-08-06T01:14:58.251Z,19.73
2018-08-06T01:15:58.262Z,19.71
2018-08-06T01:16:58.269Z,19.71
2018-08-06T01:17:58.267Z,19.74
2018-08-06T01:18:58.390Z,19.69
2018-08-06T01:19:58.275Z,19.83
2018-08-06T01:20:58.280Z,19.76
2018-08-06T01:21:58.282Z,19.80
2018-08-06T01:22:58.291Z,19.77
2018-08-06T01:23:58.287Z,19.80
2018-08-06T01:24:58.296Z,19.84
2018-08-06T01:25:58.301Z,19.78
2018-08-06T01:26:58.308Z,19.83
2018-08-06T01:27:58.309Z,19.81
2018-08-06T01:28:58.305Z,19.78
2018-08-06T01:29:58.310Z,19.77
2018-08-06T01:30:58.315Z,19.83
2018-08-06T01:31:58.321Z,19.78
2018-08-06T01:32:58.315Z,19.78
2018-08-06T01:33:58.324Z,19.74
2018-08-06T01:34:58.333Z,19.76
2018-08-06T01:35:58.321Z,19.65
2018-08-06T01:36:58.456Z,19.74
2018-08-06T01:37:58.338Z,19.63
2018-08-06T01:38:58.337Z,19.63
2018-08-06T01:39:58.341Z,19.73
2018-08-06T01:40:58.342Z,19.58
2018-08-06T01:41:58.341Z,19.68
2018-08-06T01:42:58.351Z,19.62
2018-08-06T01:43:58.358Z,19.61
2018-08-06T01:44:58.354Z,19.50
2018-08-06T01:45:58.357Z,19.50
2018-08-06T01:46:58.361Z,19.58
2018-08-06T01:47:58.367Z,19.56
2018-08-06T01:48:58.371Z,19.62
2018-08-06T01:49:58.358Z,19.65
2018-08-06T01:50:58.370Z,19.71
2018-08-06T01:51:58.376Z,19.69
2018-08-06T01:52:58.374Z,19.69
2018-08-06T01:53:58.379Z,19.68
2018-08-06T01:54:58.385Z,19.68
2018-08-06T01:55:58.390Z,19.69
2018-08-06T01:56:58.383Z,19.58
2018-08-06T01:57:58.414Z,19.63
2018-08-06T01:58:58.400Z,19.66
2018-08-06T01:59:59.178Z,19.56
2018-08-06T02:00:58.403Z,19.56
2018-08-06T02:01:58.404Z,19.48
2018-08-06T02:02:58.419Z,19.47
2018-08-06T02:03:58.408Z,19.47
2018-08-06T02:04:58.417Z,19.50
2018-08-06T02:05:58.422Z,19.55
2018-08-06T02:06:58.427Z,19.43
2018-08-06T02:07:58.433Z,19.39
2018-08-06T02:08:58.434Z,19.36
2018-08-06T02:09:58.487Z,19.41
2018-08-06T02:10:58.433Z,19.31
2018-08-06T02:11:58.440Z,19.33
2018-08-06T02:12:58.423Z,19.36
2018-08-06T02:13:58.437Z,19.31
2018-08-06T02:14:58.461Z,19.36
2018-08-06T02:15:58.446Z,19.44
2018-08-06T02:16:58.471Z,19.55
2018-08-06T02:17:58.465Z,19.39
2018-08-06T02:18:58.459Z,19.43
2018-08-06T02:19:58.457Z,19.41
2018-08-06T02:20:58.460Z,19.37
2018-08-06T02:21:58.469Z,19.40
2018-08-06T02:22:58.518Z,19.44
2018-08-06T02:23:58.472Z,19.44
2018-08-06T02:24:58.481Z,19.43
2018-08-06T02:25:58.478Z,19.41
2018-08-06T02:26:58.484Z,19.46
2018-08-06T02:27:58.599Z,19.33
2018-08-06T02:28:58.489Z,19.29
2018-08-06T02:29:58.493Z,19.28
2018-08-06T02:30:58.492Z,19.31
2018-08-06T02:31:58.499Z,19.26
2018-08-06T02:32:58.504Z,19.36
2018-08-06T02:33:58.498Z,19.36
2018-08-06T02:34:58.501Z,19.21
2018-08-06T02:35:58.506Z,19.23
2018-08-06T02:36:58.515Z,19.28
2018-08-06T02:37:58.521Z,19.26
2018-08-06T02:38:58.534Z,19.28
2018-08-06T02:39:58.516Z,19.25
2018-08-06T02:40:58.563Z,19.29
2018-08-06T02:41:58.518Z,19.25
2018-08-06T02:42:58.530Z,19.31
2018-08-06T02:43:58.537Z,19.29
2018-08-06T02:44:58.532Z,19.22
2018-08-06T02:45:58.580Z,19.29
2018-08-06T02:46:58.544Z,19.29
2018-08-06T02:47:58.593Z,19.32
2018-08-06T02:48:58.547Z,19.23
2018-08-06T02:49:58.559Z,19.26
2018-08-06T02:50:58.667Z,19.25
2018-08-06T02:51:58.562Z,19.21
2018-08-06T02:52:58.558Z,19.16
2018-08-06T02:53:58.579Z,19.14
2018-08-06T02:54:58.564Z,19.19
2018-08-06T02:55:58.564Z,19.08
2018-08-06T02:56:58.573Z,19.10
2018-08-06T02:57:58.569Z,18.98
2018-08-06T02:58:58.567Z,19.00
2018-08-06T02:59:58.578Z,19.02
2018-08-06T03:00:58.581Z,19.06
2018-08-06T03:01:58.584Z,19.13
2018-08-06T03:02:58.591Z,19.16
2018-08-06T03:03:58.673Z,19.11
2018-08-06T03:04:58.591Z,19.14
2018-08-06T03:05:58.590Z,19.21
2018-08-06T03:06:58.599Z,19.04
2018-08-06T03:07:58.604Z,19.11
2018-08-06T03:08:58.623Z,19.08
2018-08-06T03:09:58.632Z,19.02
2018-08-06T03:10:58.608Z,19.08
2018-08-06T03:11:58.614Z,18.90
2018-08-06T03:12:58.618Z,18.99
2018-08-06T03:13:58.617Z,18.95
2018-08-06T03:14:58.622Z,18.98
2018-08-06T03:15:58.620Z,18.84
2018-08-06T03:16:58.696Z,18.88
2018-08-06T03:17:58.631Z,18.88
2018-08-06T03:18:58.635Z,18.88
2018-08-06T03:19:58.686Z,18.87
2018-08-06T03:20:58.651Z,18.85
2018-08-06T03:21:58.700Z,18.81
2018-08-06T03:22:58.644Z,18.85
2018-08-06T03:23:58.650Z,18.90
2018-08-06T03:24:58.651Z,18.90
2018-08-06T03:25:58.660Z,18.87
2018-08-06T03:26:58.657Z,18.73
2018-08-06T03:27:58.661Z,18.65
2018-08-06T03:28:58.662Z,18.69
2018-08-06T03:29:58.668Z,18.73
2018-08-06T03:30:58.671Z,18.70
2018-08-06T03:31:58.678Z,18.69
2018-08-06T03:32:58.680Z,18.66
2018-08-06T03:33:58.679Z,18.67
2018-08-06T03:34:58.751Z,18.73
2018-08-06T03:35:58.683Z,18.66
2018-08-06T03:36:58.684Z,18.60
2018-08-06T03:37:58.688Z,18.66
2018-08-06T03:38:58.705Z,18.66
2018-08-06T03:39:58.690Z,18.69
2018-08-06T03:40:58.688Z,18.66
2018-08-06T03:41:58.705Z,18.63
2018-08-06T03:42:58.704Z,18.67
2018-08-06T03:43:58.706Z,18.67
2018-08-06T03:44:59.219Z,18.65
2018-08-06T03:45:58.768Z,18.63
2018-08-06T03:46:58.764Z,18.73
2018-08-06T03:47:58.721Z,18.69
2018-08-06T03:48:58.728Z,18.70
2018-08-06T03:49:58.770Z,18.70
2018-08-06T03:50:58.749Z,18.73
2018-08-06T03:51:58.791Z,18.72
2018-08-06T03:52:58.777Z,18.73
2018-08-06T03:53:58.770Z,18.73
2018-08-06T03:54:58.747Z,18.69
2018-08-06T03:55:58.731Z,18.70
2018-08-06T03:56:58.745Z,18.70
2018-08-06T03:57:58.788Z,18.69
2018-08-06T03:58:58.750Z,18.73
2018-08-06T03:59:58.749Z,18.70
2018-08-06T04:00:58.766Z,18.76
2018-08-06T04:01:58.758Z,18.67
2018-08-06T04:02:58.762Z,18.65
2018-08-06T04:03:58.763Z,18.75
2018-08-06T04:04:58.771Z,18.76
2018-08-06T04:05:58.773Z,18.78
2018-08-06T04:06:58.772Z,18.66
2018-08-06T04:07:58.764Z,18.72
2018-08-06T04:08:58.779Z,18.73
2018-08-06T04:09:58.789Z,18.73
2018-08-06T04:10:58.774Z,18.66
2018-08-06T04:11:58.788Z,18.69
2018-08-06T04:12:58.788Z,18.69
2018-08-06T04:13:58.799Z,18.65
2018-08-06T04:14:58.794Z,18.65
2018-08-06T04:15:59.732Z,18.72
2018-08-06T04:16:58.799Z,18.58
2018-08-06T04:17:58.808Z,18.69
2018-08-06T04:18:58.815Z,18.67
2018-08-06T04:19:58.825Z,18.63
2018-08-06T04:20:58.815Z,18.66
2018-08-06T04:21:58.810Z,18.72
2018-08-06T04:22:58.819Z,18.62
2018-08-06T04:23:58.821Z,18.75
2018-08-06T04:24:58.827Z,18.72
2018-08-06T04:25:58.833Z,18.80
2018-08-06T04:26:58.829Z,18.70
2018-08-06T04:27:58.836Z,18.73
2018-08-06T04:28:58.886Z,18.81
2018-08-06T04:29:58.841Z,18.85
2018-08-06T04:30:58.843Z,18.82
2018-08-06T04:31:58.848Z,18.81
2018-08-06T04:32:58.901Z,18.75
2018-08-06T04:33:58.852Z,18.75
2018-08-06T04:34:58.864Z,18.78
2018-08-06T04:35:58.848Z,18.80
2018-08-06T04:36:58.858Z,18.78
2018-08-06T04:37:58.863Z,18.75
2018-08-06T04:38:58.931Z,18.81
2018-08-06T04:39:58.874Z,18.78
2018-08-06T04:40:58.875Z,18.81
2018-08-06T04:41:58.877Z,18.82
2018-08-06T04:42:58.882Z,18.82
2018-08-06T04:43:58.880Z,18.84
2018-08-06T04:44:58.884Z,18.95
2018-08-06T04:45:58.975Z,18.98
2018-08-06T04:46:58.923Z,18.95
2018-08-06T04:47:58.926Z,18.88
2018-08-06T04:48:58.937Z,18.94
2018-08-06T04:49:58.932Z,18.81
2018-08-06T04:50:58.961Z,18.82
2018-08-06T04:51:58.942Z,18.94
2018-08-06T04:52:58.901Z,18.94
2018-08-06T04:53:58.907Z,18.92
2018-08-06T04:54:58.915Z,18.88
2018-08-06T04:55:58.919Z,18.82
2018-08-06T04:56:58.916Z,18.94
2018-08-06T04:57:58.937Z,19.00
2018-08-06T04:58:58.921Z,19.00
2018-08-06T04:59:58.941Z,18.95
2018-08-06T05:00:58.932Z,18.98
2018-08-06T05:01:58.928Z,18.99
2018-08-06T05:02:58.935Z,19.08
2018-08-06T05:03:58.953Z,19.11
2018-08-06T05:04:58.945Z,19.10
2018-08-06T05:05:58.948Z,19.16
2018-08-06T05:06:59.118Z,19.23
2018-08-06T05:07:58.951Z,19.14
2018-08-06T05:08:58.957Z,19.14
2018-08-06T05:09:58.958Z,19.21
2018-08-06T05:10:58.973Z,19.29
2018-08-06T05:11:58.975Z,19.19
2018-08-06T05:12:58.962Z,19.32
2018-08-06T05:13:58.991Z,19.41
2018-08-06T05:14:58.959Z,19.32
2018-08-06T05:15:58.958Z,19.41
2018-08-06T05:16:58.980Z,19.51
2018-08-06T05:17:58.984Z,19.56
2018-08-06T05:18:58.979Z,19.66
2018-08-06T05:19:59.131Z,19.59
2018-08-06T05:20:59.005Z,19.54
2018-08-06T05:21:58.995Z,19.73
2018-08-06T05:22:59.000Z,19.78
2018-08-06T05:23:58.998Z,19.87
2018-08-06T05:24:59.011Z,19.91
2018-08-06T05:25:59.002Z,19.86
2018-08-06T05:26:59.009Z,19.98
2018-08-06T05:27:59.009Z,20.01
2018-08-06T05:28:59.018Z,20.06
2018-08-06T05:29:59.016Z,20.13
2018-08-06T05:30:59.021Z,20.28
2018-08-06T05:31:59.038Z,20.24
2018-08-06T05:32:59.758Z,20.14
2018-08-06T05:33:59.028Z,20.13
2018-08-06T05:34:59.030Z,20.18
2018-08-06T05:35:59.042Z,20.16
2018-08-06T05:36:59.038Z,20.18
2018-08-06T05:37:59.046Z,20.38
2018-08-06T05:38:59.039Z,20.54
2018-08-06T05:39:59.065Z,20.67
2018-08-06T05:40:59.062Z,20.99
2018-08-06T05:41:59.045Z,22.02
2018-08-06T05:42:59.059Z,23.22
2018-08-06T05:43:59.056Z,24.21
2018-08-06T05:44:59.130Z,24.77
2018-08-06T05:45:59.080Z,24.90
2018-08-06T05:46:59.070Z,25.50
2018-08-06T05:47:59.127Z,26.72
2018-08-06T05:48:59.142Z,27.19
2018-08-06T05:49:59.080Z,26.57
2018-08-06T05:50:59.094Z,26.66
2018-08-06T05:51:59.089Z,25.76
2018-08-06T05:52:59.142Z,26.55
2018-08-06T05:53:59.097Z,26.63
2018-08-06T05:54:59.094Z,26.82
2018-08-06T05:55:59.103Z,26.55
2018-08-06T05:56:59.108Z,26.29
2018-08-06T05:57:59.113Z,26.95
2018-08-06T05:58:59.119Z,27.22
2018-08-06T05:59:59.141Z,27.57
2018-08-06T06:00:59.774Z,28.37
2018-08-06T06:01:59.135Z,28.85
2018-08-06T06:02:59.146Z,28.27
2018-08-06T06:03:59.160Z,27.66
2018-08-06T06:04:59.162Z,26.76
2018-08-06T06:05:59.159Z,27.49
2018-08-06T06:06:59.154Z,27.87
2018-08-06T06:07:59.169Z,28.51
2018-08-06T06:08:59.170Z,28.92
2018-08-06T06:09:59.345Z,28.22
2018-08-06T06:10:59.203Z,28.49
2018-08-06T06:11:59.190Z,28.90
2018-08-06T06:12:59.192Z,29.94
2018-08-06T06:13:59.299Z,30.07
2018-08-06T06:14:59.210Z,29.87
2018-08-06T06:15:59.216Z,30.01
2018-08-06T06:16:59.234Z,29.58
2018-08-06T06:17:59.244Z,28.19
2018-08-06T06:18:59.242Z,28.34
2018-08-06T06:19:59.258Z,29.04
2018-08-06T06:20:59.297Z,29.19
2018-08-06T06:21:59.262Z,29.85
2018-08-06T06:22:59.272Z,29.71
2018-08-06T06:23:59.275Z,29.23
2018-08-06T06:24:59.289Z,29.92
2018-08-06T06:25:59.316Z,30.35
2018-08-06T06:26:59.365Z,30.61
2018-08-06T06:27:59.319Z,30.22
2018-08-06T06:28:59.334Z,30.49
2018-08-06T06:29:59.343Z,29.61
2018-08-06T06:30:59.348Z,29.79
2018-08-06T06:31:59.385Z,29.53
2018-08-06T06:32:59.363Z,29.36
2018-08-06T06:33:59.363Z,29.21
2018-08-06T06:34:59.384Z,29.49
2018-08-06T06:35:59.397Z,30.32
2018-08-06T06:36:59.483Z,29.49
2018-08-06T06:37:59.407Z,28.81
2018-08-06T06:38:59.435Z,28.61
2018-08-06T06:39:59.424Z,27.72
2018-08-06T06:40:59.447Z,27.51
2018-08-06T06:42:00.301Z,27.93
2018-08-06T06:42:59.457Z,28.00
2018-08-06T06:43:59.466Z,28.70
2018-08-06T06:44:59.478Z,28.90
2018-08-06T06:45:59.480Z,28.92
2018-08-06T06:46:59.496Z,28.34
2018-08-06T06:47:59.517Z,28.64
2018-08-06T06:48:59.577Z,29.15
2018-08-06T06:49:59.525Z,28.93
2018-08-06T06:50:59.536Z,28.44
2018-08-06T06:51:59.640Z,29.16
2018-08-06T06:52:59.546Z,28.90
2018-08-06T06:53:59.560Z,29.36
2018-08-06T06:54:59.576Z,29.83
2018-08-06T06:55:59.583Z,30.07
2018-08-06T06:56:59.593Z,29.28
2018-08-06T06:57:59.601Z,29.51
2018-08-06T06:58:59.615Z,29.41
2018-08-06T06:59:59.660Z,28.96
2018-08-06T07:00:59.633Z,29.37
2018-08-06T07:02:00.321Z,29.86
2018-08-06T07:02:59.655Z,30.07
2018-08-06T07:03:59.682Z,30.04
2018-08-06T07:04:59.681Z,31.17
2018-08-06T07:05:59.718Z,32.04
2018-08-06T07:06:59.712Z,30.89
2018-08-06T07:07:59.725Z,31.28
2018-08-06T07:08:59.737Z,30.65
2018-08-06T07:09:59.738Z,30.82
2018-08-06T07:10:59.734Z,31.75
2018-08-06T07:12:00.325Z,32.33
2018-08-06T07:12:59.773Z,31.72
2018-08-06T07:13:59.838Z,32.13
2018-08-06T07:14:59.803Z,31.70
2018-08-06T07:15:59.805Z,31.99
2018-08-06T07:16:59.822Z,31.21
2018-08-06T07:18:00.348Z,31.91
2018-08-06T07:18:59.900Z,31.85
2018-08-06T07:19:59.908Z,32.56
2018-08-06T07:20:59.868Z,32.67
2018-08-06T07:21:59.878Z,32.70
2018-08-06T07:22:59.901Z,32.74
2018-08-06T07:23:59.910Z,32.15
2018-08-06T07:24:59.976Z,31.95
2018-08-06T07:25:59.979Z,31.78
2018-08-06T07:26:59.950Z,31.95
2018-08-06T07:27:59.972Z,31.75
2018-08-06T07:28:59.968Z,31.43
2018-08-06T07:30:00.006Z,31.73
2018-08-06T07:30:59.998Z,32.62
2018-08-06T07:32:00.042Z,31.61
2018-08-06T07:33:00.019Z,31.54
2018-08-06T07:34:00.060Z,31.54
2018-08-06T07:35:00.085Z,31.85
2018-08-06T07:36:00.065Z,31.25
2018-08-06T07:37:00.086Z,31.84
2018-08-06T07:38:00.099Z,32.88
2018-08-06T07:39:00.123Z,32.57
2018-08-06T07:40:00.150Z,32.77
2018-08-06T07:41:00.138Z,33.14
2018-08-06T07:42:00.140Z,32.87
2018-08-06T07:43:00.175Z,33.26
2018-08-06T07:44:00.231Z,32.14
2018-08-06T07:45:00.187Z,31.62
2018-08-06T07:46:00.208Z,32.40
2018-08-06T07:47:00.233Z,31.91
2018-08-06T07:48:00.300Z,32.26
2018-08-06T07:49:00.256Z,32.85
2018-08-06T07:50:00.868Z,32.30
2018-08-06T07:51:00.306Z,31.56
2018-08-06T07:52:00.320Z,32.19
2018-08-06T07:53:00.310Z,32.33
2018-08-06T07:54:00.362Z,32.38
2018-08-06T07:55:00.344Z,31.68
2018-08-06T07:56:00.343Z,31.56
2018-08-06T07:57:00.407Z,30.99
2018-08-06T07:58:00.399Z,31.14
2018-08-06T07:59:00.397Z,31.57
2018-08-06T08:00:01.373Z,31.88
2018-08-06T08:01:00.422Z,31.99
2018-08-06T08:02:00.470Z,32.23
2018-08-06T08:03:00.604Z,32.89
2018-08-06T08:04:00.473Z,32.62
2018-08-06T08:05:00.490Z,33.50
2018-08-06T08:06:00.508Z,33.22
2018-08-06T08:07:00.529Z,34.08
2018-08-06T08:08:00.621Z,34.06
2018-08-06T08:09:00.548Z,33.98
2018-08-06T08:10:00.576Z,34.13
2018-08-06T08:11:00.591Z,34.43
2018-08-06T08:12:00.678Z,34.52
2018-08-06T08:13:00.614Z,34.35
2018-08-06T08:14:00.654Z,33.06
2018-08-06T08:15:00.688Z,32.35
2018-08-06T08:16:00.662Z,33.03
2018-08-06T08:17:00.682Z,33.31
2018-08-06T08:18:01.394Z,34.13
2018-08-06T08:19:00.712Z,33.72
2018-08-06T08:20:00.806Z,32.59
2018-08-06T08:21:00.794Z,33.21
2018-08-06T08:22:00.758Z,32.55
2018-08-06T08:23:00.784Z,31.95
2018-08-06T08:24:00.800Z,32.00
2018-08-06T08:25:00.869Z,32.21
2018-08-06T08:26:00.824Z,33.22
2018-08-06T08:27:01.390Z,34.19
2018-08-06T08:28:01.406Z,33.79
2018-08-06T08:29:00.892Z,34.30
2018-08-06T08:30:00.886Z,34.91
2018-08-06T08:31:01.894Z,33.94
2018-08-06T08:32:00.934Z,34.73
2018-08-06T08:33:00.946Z,34.42
2018-08-06T08:34:01.014Z,34.72
2018-08-06T08:35:00.988Z,33.94
2018-08-06T08:36:00.991Z,33.53
2018-08-06T08:37:01.038Z,33.14
2018-08-06T08:38:01.908Z,33.87
2018-08-06T08:39:01.908Z,34.32
2018-08-06T08:40:01.092Z,34.47
2018-08-06T08:41:01.116Z,34.39
2018-08-06T08:42:01.104Z,34.16
2018-08-06T08:43:01.143Z,34.70
2018-08-06T08:44:01.158Z,33.95
2018-08-06T08:45:01.167Z,32.40
2018-08-06T08:46:01.191Z,33.04
2018-08-06T08:47:01.204Z,33.82
2018-08-06T08:48:01.215Z,33.94
2018-08-06T08:49:01.298Z,34.66
2018-08-06T08:50:01.302Z,35.71
2018-08-06T08:51:01.270Z,34.62
2018-08-06T08:52:01.348Z,34.73
2018-08-06T08:53:01.481Z,35.43
2018-08-06T08:54:01.330Z,35.89
2018-08-06T08:55:01.344Z,34.97
2018-08-06T08:56:01.398Z,34.99
2018-08-06T08:57:01.397Z,34.28
2018-08-06T08:58:01.396Z,34.88
2018-08-06T08:59:01.433Z,34.00
2018-08-06T09:00:01.435Z,33.72
2018-08-06T09:01:01.505Z,35.09
2018-08-06T09:02:02.464Z,35.52
2018-08-06T09:03:02.423Z,35.44
2018-08-06T09:04:01.529Z,33.88
2018-08-06T09:05:02.418Z,34.08
2018-08-06T09:06:01.574Z,33.50
2018-08-06T09:07:01.565Z,33.07
2018-08-06T09:08:01.592Z,33.72
2018-08-06T09:09:01.594Z,33.37
2018-08-06T09:10:01.625Z,32.38
2018-08-06T09:11:01.644Z,33.42
2018-08-06T09:12:01.660Z,34.17
2018-08-06T09:13:01.759Z,33.37
2018-08-06T09:14:01.769Z,33.94
2018-08-06T09:15:01.738Z,34.32
2018-08-06T09:16:02.421Z,33.61
2018-08-06T09:17:01.756Z,33.54
2018-08-06T09:18:01.782Z,33.81
2018-08-06T09:19:01.804Z,32.65
2018-08-06T09:20:01.836Z,32.25
2018-08-06T09:21:01.860Z,32.51
2018-08-06T09:22:01.872Z,33.16
2018-08-06T09:23:02.426Z,33.28
2018-08-06T09:24:01.892Z,33.81
2018-08-06T09:25:01.912Z,33.60
2018-08-06T09:26:01.933Z,33.39
2018-08-06T09:27:01.951Z,34.02
2018-08-06T09:28:02.931Z,33.81
2018-08-06T09:29:02.028Z,33.49
2018-08-06T09:30:02.038Z,34.58
2018-08-06T09:31:02.932Z,35.40
2018-08-06T09:32:02.060Z,35.03
2018-08-06T09:33:02.095Z,35.31
2018-08-06T09:34:02.172Z,35.11
2018-08-06T09:35:02.126Z,35.77
2018-08-06T09:36:02.135Z,36.31
2018-08-06T09:37:02.151Z,35.02
2018-08-06T09:38:02.930Z,34.52
2018-08-06T09:39:02.203Z,34.53
2018-08-06T09:40:02.214Z,34.54
2018-08-06T09:41:02.229Z,34.52
2018-08-06T09:42:02.255Z,35.38
2018-08-06T09:43:02.276Z,35.81
2018-08-06T09:44:02.286Z,35.14
2018-08-06T09:45:02.323Z,33.90
2018-08-06T09:46:02.340Z,34.22
2018-08-06T09:47:02.360Z,34.77
2018-08-06T09:48:02.569Z,34.50
2018-08-06T09:49:02.412Z,34.10
2018-08-06T09:50:02.446Z,34.73
2018-08-06T09:51:02.945Z,35.22
2018-08-06T09:52:02.462Z,35.16
2018-08-06T09:53:02.495Z,35.85
2018-08-06T09:54:02.508Z,36.17
2018-08-06T09:55:02.526Z,35.72
2018-08-06T09:56:02.548Z,36.39
2018-08-06T09:57:02.574Z,37.18
2018-08-06T09:58:02.630Z,36.72
2018-08-06T09:59:02.625Z,35.85
2018-08-06T10:00:02.653Z,35.59
2018-08-06T10:01:02.714Z,36.12
2018-08-06T10:02:02.690Z,36.57
2018-08-06T10:03:02.704Z,36.13
2018-08-06T10:04:02.729Z,36.76
2018-08-06T10:05:02.754Z,36.84
2018-08-06T10:06:02.864Z,36.66
2018-08-06T10:07:02.794Z,36.71
2018-08-06T10:08:02.873Z,36.49
2018-08-06T10:09:02.855Z,36.49
2018-08-06T10:10:02.864Z,37.06
2018-08-06T10:11:02.884Z,37.05
2018-08-06T10:12:02.962Z,36.59
2018-08-06T10:13:04.539Z,36.13
2018-08-06T10:14:02.955Z,36.19
2018-08-06T10:15:02.980Z,36.43
2018-08-06T10:16:02.996Z,36.44
2018-08-06T10:17:03.025Z,36.60
2018-08-06T10:18:03.048Z,37.07
2018-08-06T10:19:03.187Z,37.06
2018-08-06T10:20:03.150Z,36.75
2018-08-06T10:21:03.105Z,36.25
2018-08-06T10:22:03.145Z,35.40
2018-08-06T10:23:03.170Z,35.56
2018-08-06T10:24:03.199Z,35.55
2018-08-06T10:25:03.197Z,35.34
2018-08-06T10:26:03.223Z,35.93
2018-08-06T10:27:03.243Z,36.80
2018-08-06T10:28:03.282Z,36.81
2018-08-06T10:29:03.307Z,37.00
2018-08-06T10:30:03.428Z,36.80
2018-08-06T10:31:03.350Z,36.50
2018-08-06T10:32:03.367Z,35.31
2018-08-06T10:33:03.375Z,35.75
2018-08-06T10:35:35.589Z,36.00
2018-08-06T10:36:35.560Z,35.65
2018-08-06T10:37:35.592Z,36.01
2018-08-06T10:38:35.627Z,36.16
2018-08-06T10:39:35.639Z,36.03
2018-08-06T10:40:35.664Z,35.97
2018-08-06T10:41:35.673Z,35.59
2018-08-06T10:42:36.534Z,35.93
2018-08-06T10:43:35.779Z,35.99
2018-08-06T10:44:35.761Z,35.90
2018-08-06T10:45:35.770Z,36.16
2018-08-06T10:46:35.802Z,36.66
2018-08-06T10:47:35.825Z,36.38
2018-08-06T10:48:37.670Z,36.37
2018-08-06T10:49:35.873Z,36.75
2018-08-06T10:50:35.874Z,36.81
2018-08-06T10:51:35.910Z,37.51
2018-08-06T10:52:35.970Z,37.74
2018-08-06T10:53:35.961Z,37.31
2018-08-06T10:54:35.999Z,37.06
2018-08-06T10:55:36.158Z,36.37
2018-08-06T10:56:36.020Z,35.80
2018-08-06T10:57:36.094Z,36.28
2018-08-06T10:58:36.076Z,36.72
2018-08-06T10:59:36.151Z,36.88
2018-08-06T11:00:36.099Z,36.84
2018-08-06T11:01:36.128Z,36.69
2018-08-06T11:02:36.151Z,36.13
2018-08-06T11:03:36.163Z,35.89
2018-08-06T11:04:36.180Z,35.93
2018-08-06T11:05:36.272Z,35.34
2018-08-06T11:06:36.313Z,35.26
2018-08-06T11:07:36.249Z,34.94
2018-08-06T11:08:36.269Z,34.81
2018-08-06T11:09:36.291Z,34.22
2018-08-06T11:10:36.293Z,34.47
2018-08-06T11:11:36.321Z,34.46
2018-08-06T11:12:36.325Z,34.28
2018-08-06T11:13:36.351Z,33.94
2018-08-06T11:14:36.371Z,33.69
2018-08-06T11:15:36.383Z,33.81
2018-08-06T11:16:36.395Z,33.51
2018-08-06T11:17:36.403Z,33.18
2018-08-06T11:18:36.427Z,33.00
2018-08-06T11:19:36.438Z,33.15
2018-08-06T11:20:36.559Z,32.65
2018-08-06T11:21:36.469Z,32.88
2018-08-06T11:22:36.620Z,33.03
2018-08-06T11:23:36.512Z,32.75
2018-08-06T11:24:36.559Z,32.62
2018-08-06T11:25:36.560Z,32.78
2018-08-06T11:26:36.540Z,32.82
2018-08-06T11:27:36.562Z,33.32
2018-08-06T11:28:36.608Z,33.53
2018-08-06T11:29:36.578Z,33.35
2018-08-06T11:30:36.597Z,33.49
2018-08-06T11:31:36.613Z,33.79
2018-08-06T11:32:37.553Z,33.82
2018-08-06T11:33:36.630Z,33.76
2018-08-06T11:34:36.653Z,33.87
2018-08-06T11:35:36.677Z,33.59
2018-08-06T11:36:36.713Z,33.69
2018-08-06T11:37:36.683Z,33.75
2018-08-06T11:38:36.712Z,33.61
2018-08-06T11:39:37.553Z,33.19
2018-08-06T11:40:36.721Z,33.18
2018-08-06T11:41:36.764Z,33.12
2018-08-06T11:42:36.751Z,33.23
2018-08-06T11:43:36.757Z,33.26
2018-08-06T11:44:36.763Z,33.37
2018-08-06T11:45:36.786Z,33.44
2018-08-06T11:46:36.798Z,33.76
2018-08-06T11:47:36.831Z,33.59
2018-08-06T11:48:36.819Z,33.50
2018-08-06T11:49:36.824Z,33.32
2018-08-06T11:50:36.831Z,33.07
2018-08-06T11:51:36.848Z,33.44
2018-08-06T11:52:36.868Z,33.04
2018-08-06T11:53:36.872Z,32.94
2018-08-06T11:54:36.881Z,32.45
2018-08-06T11:55:36.907Z,32.55
2018-08-06T11:56:36.934Z,32.70
2018-08-06T11:57:37.037Z,33.03
2018-08-06T11:58:36.929Z,33.38
2018-08-06T11:59:36.948Z,33.54
2018-08-06T12:00:38.640Z,33.69
2018-08-06T12:01:36.971Z,33.54
2018-08-06T12:02:36.969Z,33.69
2018-08-06T12:03:36.986Z,33.82
2018-08-06T12:04:36.995Z,33.87
2018-08-06T12:05:37.002Z,33.31
2018-08-06T12:06:37.404Z,33.44
2018-08-06T12:07:37.059Z,33.72
2018-08-06T12:08:37.055Z,33.97
2018-08-06T12:09:37.151Z,34.08
2018-08-06T12:10:37.075Z,34.02
2018-08-06T12:11:37.057Z,33.81
2018-08-06T12:12:37.068Z,33.38
2018-08-06T12:13:37.179Z,33.41
2018-08-06T12:14:37.095Z,33.54
2018-08-06T12:15:37.103Z,33.72
2018-08-06T12:16:37.115Z,33.98
2018-08-06T12:17:37.123Z,33.97
2018-08-06T12:18:37.138Z,34.08
2018-08-06T12:19:37.149Z,34.06
2018-08-06T12:20:37.245Z,34.13
2018-08-06T12:21:37.168Z,34.00
2018-08-06T12:22:37.178Z,33.47
2018-08-06T12:23:37.192Z,33.41
2018-08-06T12:24:37.219Z,33.42
2018-08-06T12:25:37.220Z,33.44
2018-08-06T12:26:37.231Z,33.44
2018-08-06T12:27:37.225Z,33.31
2018-08-06T12:28:37.245Z,33.01
2018-08-06T12:29:37.256Z,32.70
2018-08-06T12:30:37.323Z,32.66
2018-08-06T12:31:37.267Z,32.67
2018-08-06T12:32:37.299Z,32.97
2018-08-06T12:33:37.300Z,32.97
2018-08-06T12:34:37.303Z,33.12
2018-08-06T12:35:37.310Z,33.31
2018-08-06T12:36:37.328Z,33.15
2018-08-06T12:37:37.356Z,33.21
2018-08-06T12:38:37.364Z,33.32
2018-08-06T12:39:37.381Z,32.84
2018-08-06T12:40:37.350Z,33.12
2018-08-06T12:41:37.392Z,33.38
2018-08-06T12:42:37.439Z,33.51
2018-08-06T12:43:37.425Z,33.28
2018-08-06T12:44:37.434Z,33.42
2018-08-06T12:45:37.481Z,33.54
2018-08-06T12:46:37.427Z,33.63
2018-08-06T12:47:37.459Z,33.84
2018-08-06T12:48:37.432Z,33.78
2018-08-06T12:49:37.478Z,33.95
2018-08-06T12:50:37.467Z,34.00
2018-08-06T12:51:37.521Z,33.98
2018-08-06T12:52:37.495Z,33.87
2018-08-06T12:53:37.490Z,33.90
2018-08-06T12:54:37.493Z,33.87